sensor_id;sensor_type;location;lat;lon;timestamp;temperature;humidity
8539;DHT22;4307;53.868;11.680;2023-03-05T00:01:15;3.80;99.90
8539;DHT22;4307;53.868;11.680;2023-03-05T00:03:44;3.80;99.90
8539;DHT22;4307;53.868;11.680;2023-03-05T00:06:10;3.80;99.90
8539;DHT22;4307;53.868;11.680;2023-03-05T00:08:37;3.80;99.90
8539;DHT22;4307;53.868;11.680;2023-03-05T00:11:06;3.80;99.90
8539;DHT22;4307;53.868;11.680;2023-03-05T00:13:34;3.80;99.90
8539;DHT22;4307;53.868;11.680;2023-03-05T00:16:02;3.80;99.90
8539;DHT22;4307;53.868;11.680;2023-03-05T00:18:29;3.80;99.90
8539;DHT22;4307;53.868;11.680;2023-03-05T00:20:57;3.80;99.90
8539;DHT22;4307;53.868;11.680;2023-03-05T00:23:23;3.80;99.90
8539;DHT22;4307;53.868;11.680;2023-03-05T00:25:50;3.80;99.90
8539;DHT22;4307;53.868;11.680;2023-03-05T00:28:17;3.80;99.90
8539;DHT22;4307;53.868;11.680;2023-03-05T00:30:43;3.80;99.90
8539;DHT22;4307;53.868;11.680;2023-03-05T00:33:11;3.80;99.90
8539;DHT22;4307;53.868;11.680;2023-03-05T00:35:39;3.80;99.90
8539;DHT22;4307;53.868;11.680;2023-03-05T00:38:07;3.80;99.90
8539;DHT22;4307;53.868;11.680;2023-03-05T00:40:35;3.80;99.90
8539;DHT22;4307;53.868;11.680;2023-03-05T00:43:02;3.80;99.90
8539;DHT22;4307;53.868;11.680;2023-03-05T00:45:30;3.80;99.90
8539;DHT22;4307;53.868;11.680;2023-03-05T00:47:56;3.80;99.90
8539;DHT22;4307;53.868;11.680;2023-03-05T00:50:26;3.80;99.90
8539;DHT22;4307;53.868;11.680;2023-03-05T00:52:52;3.80;99.90
8539;DHT22;4307;53.868;11.680;2023-03-05T00:55:20;3.80;99.90
8539;DHT22;4307;53.868;11.680;2023-03-05T00:57:47;3.80;99.90
8539;DHT22;4307;53.868;11.680;2023-03-05T01:00:15;3.80;99.90
8539;DHT22;4307;53.868;11.680;2023-03-05T01:02:42;3.80;99.90
8539;DHT22;4307;53.868;11.680;2023-03-05T01:05:10;3.80;99.90
8539;DHT22;4307;53.868;11.680;2023-03-05T01:07:37;3.80;99.90
8539;DHT22;4307;53.868;11.680;2023-03-05T01:10:05;3.70;99.90
8539;DHT22;4307;53.868;11.680;2023-03-05T01:12:33;3.80;99.90
8539;DHT22;4307;53.868;11.680;2023-03-05T01:14:59;3.80;99.90
8539;DHT22;4307;53.868;11.680;2023-03-05T01:17:26;3.80;99.90
8539;DHT22;4307;53.868;11.680;2023-03-05T01:19:53;3.80;99.90
8539;DHT22;4307;53.868;11.680;2023-03-05T01:22:19;3.80;99.90
8539;DHT22;4307;53.868;11.680;2023-03-05T01:24:46;3.80;99.90
8539;DHT22;4307;53.868;11.680;2023-03-05T01:27:13;3.80;99.90
8539;DHT22;4307;53.868;11.680;2023-03-05T01:29:41;3.80;99.90
8539;DHT22;4307;53.868;11.680;2023-03-05T01:32:07;3.80;99.90
8539;DHT22;4307;53.868;11.680;2023-03-05T01:34:35;3.80;99.90
8539;DHT22;4307;53.868;11.680;2023-03-05T01:37:02;3.80;99.90
8539;DHT22;4307;53.868;11.680;2023-03-05T01:39:29;3.80;99.90
8539;DHT22;4307;53.868;11.680;2023-03-05T01:41:56;3.80;99.90
8539;DHT22;4307;53.868;11.680;2023-03-05T01:44:25;3.80;99.90
8539;DHT22;4307;53.868;11.680;2023-03-05T01:46:54;3.80;99.90
8539;DHT22;4307;53.868;11.680;2023-03-05T01:49:24;3.80;99.90
8539;DHT22;4307;53.868;11.680;2023-03-05T01:51:56;3.90;99.90
8539;DHT22;4307;53.868;11.680;2023-03-05T01:54:27;3.80;99.90
8539;DHT22;4307;53.868;11.680;2023-03-05T01:56:58;3.90;99.90
8539;DHT22;4307;53.868;11.680;2023-03-05T01:59:28;3.90;99.90
8539;DHT22;4307;53.868;11.680;2023-03-05T02:01:57;3.90;99.90
8539;DHT22;4307;53.868;11.680;2023-03-05T02:04:30;3.90;99.90
8539;DHT22;4307;53.868;11.680;2023-03-05T02:06:58;3.90;99.90
8539;DHT22;4307;53.868;11.680;2023-03-05T02:09:26;3.90;99.90
8539;DHT22;4307;53.868;11.680;2023-03-05T02:11:53;3.90;99.90
8539;DHT22;4307;53.868;11.680;2023-03-05T02:14:20;3.90;99.90
8539;DHT22;4307;53.868;11.680;2023-03-05T02:16:48;3.90;99.90
8539;DHT22;4307;53.868;11.680;2023-03-05T02:19:16;3.90;99.90
8539;DHT22;4307;53.868;11.680;2023-03-05T02:21:46;3.90;99.90
8539;DHT22;4307;53.868;11.680;2023-03-05T02:24:16;3.90;99.90
8539;DHT22;4307;53.868;11.680;2023-03-05T02:26:43;3.90;99.90
8539;DHT22;4307;53.868;11.680;2023-03-05T02:29:13;3.90;99.90
8539;DHT22;4307;53.868;11.680;2023-03-05T02:31:42;3.90;99.90
8539;DHT22;4307;53.868;11.680;2023-03-05T02:34:09;3.90;99.90
8539;DHT22;4307;53.868;11.680;2023-03-05T02:36:36;3.90;99.90
8539;DHT22;4307;53.868;11.680;2023-03-05T02:39:04;3.90;99.90
8539;DHT22;4307;53.868;11.680;2023-03-05T02:41:31;3.90;99.90
8539;DHT22;4307;53.868;11.680;2023-03-05T02:43:58;3.90;99.90
8539;DHT22;4307;53.868;11.680;2023-03-05T02:46:24;3.90;99.90
8539;DHT22;4307;53.868;11.680;2023-03-05T02:48:51;3.90;99.90
8539;DHT22;4307;53.868;11.680;2023-03-05T02:51:18;3.90;99.90
8539;DHT22;4307;53.868;11.680;2023-03-05T02:53:44;3.80;99.90
8539;DHT22;4307;53.868;11.680;2023-03-05T02:56:12;3.80;99.90
8539;DHT22;4307;53.868;11.680;2023-03-05T02:58:39;3.80;99.90
8539;DHT22;4307;53.868;11.680;2023-03-05T03:01:07;3.80;99.90
8539;DHT22;4307;53.868;11.680;2023-03-05T03:03:33;3.80;99.90
8539;DHT22;4307;53.868;11.680;2023-03-05T03:06:00;3.80;99.90
8539;DHT22;4307;53.868;11.680;2023-03-05T03:08:27;3.70;99.90
8539;DHT22;4307;53.868;11.680;2023-03-05T03:10:54;3.70;99.90
8539;DHT22;4307;53.868;11.680;2023-03-05T03:13:22;3.70;99.90
8539;DHT22;4307;53.868;11.680;2023-03-05T03:15:49;3.60;99.90
8539;DHT22;4307;53.868;11.680;2023-03-05T03:18:15;3.60;99.90
8539;DHT22;4307;53.868;11.680;2023-03-05T03:20:42;3.70;99.90
8539;DHT22;4307;53.868;11.680;2023-03-05T03:23:09;3.60;99.90
8539;DHT22;4307;53.868;11.680;2023-03-05T03:25:35;3.60;99.90
8539;DHT22;4307;53.868;11.680;2023-03-05T03:28:02;3.60;99.90
8539;DHT22;4307;53.868;11.680;2023-03-05T03:30:30;3.60;99.90
8539;DHT22;4307;53.868;11.680;2023-03-05T03:32:57;3.70;99.90
8539;DHT22;4307;53.868;11.680;2023-03-05T03:35:23;3.70;99.90
8539;DHT22;4307;53.868;11.680;2023-03-05T03:37:50;3.70;99.90
8539;DHT22;4307;53.868;11.680;2023-03-05T03:40:17;3.70;99.90
8539;DHT22;4307;53.868;11.680;2023-03-05T03:42:43;3.70;99.90
8539;DHT22;4307;53.868;11.680;2023-03-05T03:45:11;3.70;99.90
8539;DHT22;4307;53.868;11.680;2023-03-05T03:47:39;3.70;99.90
8539;DHT22;4307;53.868;11.680;2023-03-05T03:50:07;3.70;99.90
8539;DHT22;4307;53.868;11.680;2023-03-05T03:52:34;3.70;99.90
8539;DHT22;4307;53.868;11.680;2023-03-05T03:55:01;3.60;99.90
8539;DHT22;4307;53.868;11.680;2023-03-05T03:57:28;3.60;99.90
8539;DHT22;4307;53.868;11.680;2023-03-05T03:59:55;3.60;99.90
8539;DHT22;4307;53.868;11.680;2023-03-05T04:02:22;3.60;99.90
8539;DHT22;4307;53.868;11.680;2023-03-05T04:04:50;3.60;99.90
8539;DHT22;4307;53.868;11.680;2023-03-05T04:07:17;3.60;99.90
8539;DHT22;4307;53.868;11.680;2023-03-05T04:09:44;3.50;99.90
8539;DHT22;4307;53.868;11.680;2023-03-05T04:12:11;3.40;99.90
8539;DHT22;4307;53.868;11.680;2023-03-05T04:14:42;3.40;99.90
8539;DHT22;4307;53.868;11.680;2023-03-05T04:17:09;3.30;99.90
8539;DHT22;4307;53.868;11.680;2023-03-05T04:19:36;3.20;99.90
8539;DHT22;4307;53.868;11.680;2023-03-05T04:22:04;3.20;99.90
8539;DHT22;4307;53.868;11.680;2023-03-05T04:24:31;3.10;99.90
8539;DHT22;4307;53.868;11.680;2023-03-05T04:26:58;3.00;99.90
8539;DHT22;4307;53.868;11.680;2023-03-05T04:29:24;3.00;99.90
8539;DHT22;4307;53.868;11.680;2023-03-05T04:31:51;2.90;99.90
8539;DHT22;4307;53.868;11.680;2023-03-05T04:34:18;2.90;99.90
8539;DHT22;4307;53.868;11.680;2023-03-05T04:36:44;2.80;99.90
8539;DHT22;4307;53.868;11.680;2023-03-05T04:39:12;2.80;99.90
8539;DHT22;4307;53.868;11.680;2023-03-05T04:41:39;2.80;99.90
8539;DHT22;4307;53.868;11.680;2023-03-05T04:44:06;2.80;99.90
8539;DHT22;4307;53.868;11.680;2023-03-05T04:46:33;2.70;99.90
8539;DHT22;4307;53.868;11.680;2023-03-05T04:48:59;2.80;99.90
8539;DHT22;4307;53.868;11.680;2023-03-05T04:51:26;2.70;99.90
8539;DHT22;4307;53.868;11.680;2023-03-05T04:53:53;2.70;99.90
8539;DHT22;4307;53.868;11.680;2023-03-05T04:56:21;2.70;99.90
8539;DHT22;4307;53.868;11.680;2023-03-05T04:58:47;2.70;99.90
8539;DHT22;4307;53.868;11.680;2023-03-05T05:01:14;2.70;99.90
8539;DHT22;4307;53.868;11.680;2023-03-05T05:03:41;2.70;99.90
8539;DHT22;4307;53.868;11.680;2023-03-05T05:06:08;2.70;99.90
8539;DHT22;4307;53.868;11.680;2023-03-05T05:08:35;2.80;99.90
8539;DHT22;4307;53.868;11.680;2023-03-05T05:11:05;2.80;99.90
8539;DHT22;4307;53.868;11.680;2023-03-05T05:13:33;2.80;99.90
8539;DHT22;4307;53.868;11.680;2023-03-05T05:16:00;2.70;99.90
8539;DHT22;4307;53.868;11.680;2023-03-05T05:18:27;2.70;99.90
8539;DHT22;4307;53.868;11.680;2023-03-05T05:20:54;2.70;99.90
8539;DHT22;4307;53.868;11.680;2023-03-05T05:23:20;2.70;99.90
8539;DHT22;4307;53.868;11.680;2023-03-05T05:25:55;2.70;99.90
8539;DHT22;4307;53.868;11.680;2023-03-05T05:28:22;2.70;99.90
8539;DHT22;4307;53.868;11.680;2023-03-05T05:30:50;2.70;99.90
8539;DHT22;4307;53.868;11.680;2023-03-05T05:33:16;2.70;99.90
8539;DHT22;4307;53.868;11.680;2023-03-05T05:35:43;2.70;99.90
8539;DHT22;4307;53.868;11.680;2023-03-05T05:38:09;2.60;99.90
8539;DHT22;4307;53.868;11.680;2023-03-05T05:40:36;2.60;99.90
8539;DHT22;4307;53.868;11.680;2023-03-05T05:43:03;2.60;99.90
8539;DHT22;4307;53.868;11.680;2023-03-05T05:45:30;2.50;99.90
8539;DHT22;4307;53.868;11.680;2023-03-05T05:47:58;2.50;99.90
8539;DHT22;4307;53.868;11.680;2023-03-05T05:50:25;2.50;99.90
8539;DHT22;4307;53.868;11.680;2023-03-05T05:52:52;2.50;99.90
8539;DHT22;4307;53.868;11.680;2023-03-05T05:55:18;2.50;99.90
8539;DHT22;4307;53.868;11.680;2023-03-05T05:57:45;2.40;99.90
8539;DHT22;4307;53.868;11.680;2023-03-05T06:00:13;2.40;99.90
8539;DHT22;4307;53.868;11.680;2023-03-05T06:02:41;2.30;99.90
8539;DHT22;4307;53.868;11.680;2023-03-05T06:05:11;2.30;99.90
8539;DHT22;4307;53.868;11.680;2023-03-05T06:07:37;2.30;99.90
8539;DHT22;4307;53.868;11.680;2023-03-05T06:10:05;2.30;99.90
8539;DHT22;4307;53.868;11.680;2023-03-05T06:12:32;2.30;99.90
8539;DHT22;4307;53.868;11.680;2023-03-05T06:14:59;2.30;99.90
8539;DHT22;4307;53.868;11.680;2023-03-05T06:17:27;2.30;99.90
8539;DHT22;4307;53.868;11.680;2023-03-05T06:19:54;2.30;99.90
8539;DHT22;4307;53.868;11.680;2023-03-05T06:22:22;2.30;99.90
8539;DHT22;4307;53.868;11.680;2023-03-05T06:24:48;2.30;99.90
8539;DHT22;4307;53.868;11.680;2023-03-05T06:27:15;2.30;99.90
8539;DHT22;4307;53.868;11.680;2023-03-05T06:29:42;2.40;99.90
8539;DHT22;4307;53.868;11.680;2023-03-05T06:32:08;2.40;99.90
8539;DHT22;4307;53.868;11.680;2023-03-05T06:34:35;2.40;99.90
8539;DHT22;4307;53.868;11.680;2023-03-05T06:37:02;2.50;99.90
8539;DHT22;4307;53.868;11.680;2023-03-05T06:39:30;2.50;99.90
8539;DHT22;4307;53.868;11.680;2023-03-05T06:41:56;2.50;99.90
8539;DHT22;4307;53.868;11.680;2023-03-05T06:44:23;2.50;99.90
8539;DHT22;4307;53.868;11.680;2023-03-05T06:46:50;2.60;99.90
8539;DHT22;4307;53.868;11.680;2023-03-05T06:49:17;2.60;99.90
8539;DHT22;4307;53.868;11.680;2023-03-05T06:51:43;2.60;99.90
8539;DHT22;4307;53.868;11.680;2023-03-05T06:54:12;2.70;99.90
8539;DHT22;4307;53.868;11.680;2023-03-05T06:56:42;2.70;99.90
8539;DHT22;4307;53.868;11.680;2023-03-05T06:59:10;2.80;99.90
8539;DHT22;4307;53.868;11.680;2023-03-05T07:01:37;2.80;99.90
8539;DHT22;4307;53.868;11.680;2023-03-05T07:04:04;2.80;99.90
8539;DHT22;4307;53.868;11.680;2023-03-05T07:06:32;2.80;99.90
8539;DHT22;4307;53.868;11.680;2023-03-05T07:08:59;2.80;99.90
8539;DHT22;4307;53.868;11.680;2023-03-05T07:11:28;2.80;99.90
8539;DHT22;4307;53.868;11.680;2023-03-05T07:13:56;2.90;99.90
8539;DHT22;4307;53.868;11.680;2023-03-05T07:16:25;3.00;99.90
8539;DHT22;4307;53.868;11.680;2023-03-05T07:18:52;3.10;99.90
8539;DHT22;4307;53.868;11.680;2023-03-05T07:21:21;3.10;99.90
8539;DHT22;4307;53.868;11.680;2023-03-05T07:23:48;3.20;99.90
8539;DHT22;4307;53.868;11.680;2023-03-05T07:26:15;3.20;99.90
8539;DHT22;4307;53.868;11.680;2023-03-05T07:28:42;3.20;99.90
8539;DHT22;4307;53.868;11.680;2023-03-05T07:31:13;3.30;99.90
8539;DHT22;4307;53.868;11.680;2023-03-05T07:33:40;3.30;99.90
8539;DHT22;4307;53.868;11.680;2023-03-05T07:36:08;3.30;99.90
8539;DHT22;4307;53.868;11.680;2023-03-05T07:38:34;3.30;99.90
8539;DHT22;4307;53.868;11.680;2023-03-05T07:41:02;3.30;99.90
8539;DHT22;4307;53.868;11.680;2023-03-05T07:43:28;3.40;99.90
8539;DHT22;4307;53.868;11.680;2023-03-05T07:45:55;3.40;99.90
8539;DHT22;4307;53.868;11.680;2023-03-05T07:48:23;3.40;99.90
8539;DHT22;4307;53.868;11.680;2023-03-05T07:50:52;3.50;99.90
8539;DHT22;4307;53.868;11.680;2023-03-05T07:53:25;3.50;99.90
8539;DHT22;4307;53.868;11.680;2023-03-05T07:55:51;3.60;99.90
8539;DHT22;4307;53.868;11.680;2023-03-05T07:58:18;3.60;99.90
8539;DHT22;4307;53.868;11.680;2023-03-05T08:00:45;3.70;99.90
8539;DHT22;4307;53.868;11.680;2023-03-05T08:03:11;3.80;99.90
8539;DHT22;4307;53.868;11.680;2023-03-05T08:05:39;3.80;99.90
8539;DHT22;4307;53.868;11.680;2023-03-05T08:08:07;3.90;99.90
8539;DHT22;4307;53.868;11.680;2023-03-05T08:10:35;4.00;99.90
8539;DHT22;4307;53.868;11.680;2023-03-05T08:13:02;4.20;99.90
8539;DHT22;4307;53.868;11.680;2023-03-05T08:15:29;4.40;99.90
8539;DHT22;4307;53.868;11.680;2023-03-05T08:17:56;4.60;99.90
8539;DHT22;4307;53.868;11.680;2023-03-05T08:20:23;5.00;99.90
8539;DHT22;4307;53.868;11.680;2023-03-05T08:22:51;5.30;99.90
8539;DHT22;4307;53.868;11.680;2023-03-05T08:25:17;5.40;99.90
8539;DHT22;4307;53.868;11.680;2023-03-05T08:27:46;5.40;99.90
8539;DHT22;4307;53.868;11.680;2023-03-05T08:30:15;5.50;99.90
8539;DHT22;4307;53.868;11.680;2023-03-05T08:32:42;5.60;99.90
8539;DHT22;4307;53.868;11.680;2023-03-05T08:35:09;5.60;99.90
8539;DHT22;4307;53.868;11.680;2023-03-05T08:37:35;5.60;99.90
8539;DHT22;4307;53.868;11.680;2023-03-05T08:40:05;5.60;99.90
8539;DHT22;4307;53.868;11.680;2023-03-05T08:42:31;5.50;99.90
8539;DHT22;4307;53.868;11.680;2023-03-05T08:44:58;5.30;99.90
8539;DHT22;4307;53.868;11.680;2023-03-05T08:47:25;5.20;99.90
8539;DHT22;4307;53.868;11.680;2023-03-05T08:49:52;5.10;99.90
8539;DHT22;4307;53.868;11.680;2023-03-05T08:52:20;5.00;99.90
8539;DHT22;4307;53.868;11.680;2023-03-05T08:54:46;5.00;99.90
8539;DHT22;4307;53.868;11.680;2023-03-05T08:57:15;5.00;99.90
8539;DHT22;4307;53.868;11.680;2023-03-05T08:59:41;5.10;99.90
8539;DHT22;4307;53.868;11.680;2023-03-05T09:02:09;5.10;99.90
8539;DHT22;4307;53.868;11.680;2023-03-05T09:04:36;5.10;99.90
8539;DHT22;4307;53.868;11.680;2023-03-05T09:07:03;5.10;99.90
8539;DHT22;4307;53.868;11.680;2023-03-05T09:09:30;5.00;99.90
8539;DHT22;4307;53.868;11.680;2023-03-05T09:11:58;5.00;99.90
8539;DHT22;4307;53.868;11.680;2023-03-05T09:14:26;4.90;99.90
8539;DHT22;4307;53.868;11.680;2023-03-05T09:16:53;4.80;99.90
8539;DHT22;4307;53.868;11.680;2023-03-05T09:19:20;4.70;99.90
8539;DHT22;4307;53.868;11.680;2023-03-05T09:21:46;4.60;99.90
8539;DHT22;4307;53.868;11.680;2023-03-05T09:24:13;4.50;99.90
8539;DHT22;4307;53.868;11.680;2023-03-05T09:26:40;4.50;99.90
8539;DHT22;4307;53.868;11.680;2023-03-05T09:29:07;4.50;99.90
8539;DHT22;4307;53.868;11.680;2023-03-05T09:31:35;4.50;99.90
8539;DHT22;4307;53.868;11.680;2023-03-05T09:34:03;4.60;99.90
8539;DHT22;4307;53.868;11.680;2023-03-05T09:36:31;4.60;99.90
8539;DHT22;4307;53.868;11.680;2023-03-05T09:38:57;4.70;99.90
8539;DHT22;4307;53.868;11.680;2023-03-05T09:41:30;5.00;99.90
8539;DHT22;4307;53.868;11.680;2023-03-05T09:44:07;5.40;99.90
8539;DHT22;4307;53.868;11.680;2023-03-05T09:46:47;5.80;99.90
8539;DHT22;4307;53.868;11.680;2023-03-05T09:49:20;6.30;99.90
8539;DHT22;4307;53.868;11.680;2023-03-05T09:51:53;6.80;99.90
8539;DHT22;4307;53.868;11.680;2023-03-05T09:54:35;7.20;99.90
8539;DHT22;4307;53.868;11.680;2023-03-05T09:57:04;7.50;99.90
8539;DHT22;4307;53.868;11.680;2023-03-05T09:59:43;7.60;99.90
8539;DHT22;4307;53.868;11.680;2023-03-05T10:02:17;7.70;99.90
8539;DHT22;4307;53.868;11.680;2023-03-05T10:04:47;7.90;99.90
8539;DHT22;4307;53.868;11.680;2023-03-05T10:07:20;8.10;99.90
8539;DHT22;4307;53.868;11.680;2023-03-05T10:09:51;8.20;99.90
8539;DHT22;4307;53.868;11.680;2023-03-05T10:12:25;8.10;99.90
8539;DHT22;4307;53.868;11.680;2023-03-05T10:14:53;7.90;99.90
8539;DHT22;4307;53.868;11.680;2023-03-05T10:17:36;7.70;99.90
8539;DHT22;4307;53.868;11.680;2023-03-05T10:20:21;7.40;99.60
8539;DHT22;4307;53.868;11.680;2023-03-05T10:23:03;7.20;99.60
8539;DHT22;4307;53.868;11.680;2023-03-05T10:25:43;7.20;99.40
8539;DHT22;4307;53.868;11.680;2023-03-05T10:28:15;7.20;99.20
8539;DHT22;4307;53.868;11.680;2023-03-05T10:30:56;7.20;99.00
8539;DHT22;4307;53.868;11.680;2023-03-05T10:33:33;7.30;98.70
8539;DHT22;4307;53.868;11.680;2023-03-05T10:36:20;7.40;98.50
8539;DHT22;4307;53.868;11.680;2023-03-05T10:39:04;7.60;98.20
8539;DHT22;4307;53.868;11.680;2023-03-05T10:41:39;7.80;98.30
8539;DHT22;4307;53.868;11.680;2023-03-05T10:44:11;8.00;98.20
8539;DHT22;4307;53.868;11.680;2023-03-05T10:46:41;8.10;97.80
8539;DHT22;4307;53.868;11.680;2023-03-05T10:49:16;8.20;97.50
8539;DHT22;4307;53.868;11.680;2023-03-05T10:51:50;8.20;97.00
8539;DHT22;4307;53.868;11.680;2023-03-05T10:54:21;8.20;96.90
8539;DHT22;4307;53.868;11.680;2023-03-05T10:56:49;8.30;96.80
8539;DHT22;4307;53.868;11.680;2023-03-05T10:59:16;8.30;96.60
8539;DHT22;4307;53.868;11.680;2023-03-05T11:02:00;8.40;96.40
8539;DHT22;4307;53.868;11.680;2023-03-05T11:04:29;8.50;96.20
8539;DHT22;4307;53.868;11.680;2023-03-05T11:07:05;8.80;96.20
8539;DHT22;4307;53.868;11.680;2023-03-05T11:09:32;8.90;95.70
8539;DHT22;4307;53.868;11.680;2023-03-05T11:12:11;8.80;95.00
8539;DHT22;4307;53.868;11.680;2023-03-05T11:14:40;8.60;94.70
8539;DHT22;4307;53.868;11.680;2023-03-05T11:17:30;8.30;94.80
8539;DHT22;4307;53.868;11.680;2023-03-05T11:20:28;8.10;94.60
8539;DHT22;4307;53.868;11.680;2023-03-05T11:23:09;7.90;94.40
8539;DHT22;4307;53.868;11.680;2023-03-05T11:25:51;7.70;94.50
8539;DHT22;4307;53.868;11.680;2023-03-05T11:28:19;7.70;94.80
8539;DHT22;4307;53.868;11.680;2023-03-05T11:30:58;7.70;95.00
8539;DHT22;4307;53.868;11.680;2023-03-05T11:33:25;7.90;94.70
8539;DHT22;4307;53.868;11.680;2023-03-05T11:36:17;8.10;94.60
8539;DHT22;4307;53.868;11.680;2023-03-05T11:38:49;8.20;94.00
8539;DHT22;4307;53.868;11.680;2023-03-05T11:41:19;8.10;94.10
8539;DHT22;4307;53.868;11.680;2023-03-05T11:43:48;8.20;94.30
8539;DHT22;4307;53.868;11.680;2023-03-05T11:46:16;8.20;94.10
8539;DHT22;4307;53.868;11.680;2023-03-05T11:48:44;8.20;93.80
8539;DHT22;4307;53.868;11.680;2023-03-05T11:51:17;8.10;93.50
8539;DHT22;4307;53.868;11.680;2023-03-05T11:53:48;7.90;93.50
8539;DHT22;4307;53.868;11.680;2023-03-05T11:56:19;7.70;93.40
8539;DHT22;4307;53.868;11.680;2023-03-05T11:58:50;7.70;93.60
8539;DHT22;4307;53.868;11.680;2023-03-05T12:01:22;7.70;93.40
8539;DHT22;4307;53.868;11.680;2023-03-05T12:03:49;7.60;93.30
8539;DHT22;4307;53.868;11.680;2023-03-05T12:06:22;7.70;93.30
8539;DHT22;4307;53.868;11.680;2023-03-05T12:08:53;7.90;93.50
8539;DHT22;4307;53.868;11.680;2023-03-05T12:11:25;8.10;93.40
8539;DHT22;4307;53.868;11.680;2023-03-05T12:13:55;8.20;93.20
8539;DHT22;4307;53.868;11.680;2023-03-05T12:16:27;8.10;92.90
8539;DHT22;4307;53.868;11.680;2023-03-05T12:21:54;7.70;92.60
8539;DHT22;4307;53.868;11.680;2023-03-05T12:24:35;7.30;92.50
8539;DHT22;4307;53.868;11.680;2023-03-05T12:27:14;7.10;92.50
8539;DHT22;4307;53.868;11.680;2023-03-05T12:29:44;6.80;92.30
8539;DHT22;4307;53.868;11.680;2023-03-05T12:35:32;6.40;92.50
8539;DHT22;4307;53.868;11.680;2023-03-05T12:38:28;6.30;92.50
8539;DHT22;4307;53.868;11.680;2023-03-05T12:41:32;6.30;92.40
8539;DHT22;4307;53.868;11.680;2023-03-05T12:44:19;6.20;92.40
8539;DHT22;4307;53.868;11.680;2023-03-05T12:47:17;6.20;92.20
8539;DHT22;4307;53.868;11.680;2023-03-05T12:49:47;6.10;92.20
8539;DHT22;4307;53.868;11.680;2023-03-05T12:52:25;6.10;92.20
8539;DHT22;4307;53.868;11.680;2023-03-05T12:55:17;6.10;92.20
8539;DHT22;4307;53.868;11.680;2023-03-05T12:57:46;6.10;92.30
8539;DHT22;4307;53.868;11.680;2023-03-05T13:00:17;6.10;92.30
8539;DHT22;4307;53.868;11.680;2023-03-05T13:02:50;6.10;92.40
8539;DHT22;4307;53.868;11.680;2023-03-05T13:05:22;6.00;92.40
8539;DHT22;4307;53.868;11.680;2023-03-05T13:07:50;6.00;92.50
8539;DHT22;4307;53.868;11.680;2023-03-05T13:10:23;6.00;92.50
8539;DHT22;4307;53.868;11.680;2023-03-05T13:12:51;6.00;92.60
8539;DHT22;4307;53.868;11.680;2023-03-05T13:15:19;6.00;92.70
8539;DHT22;4307;53.868;11.680;2023-03-05T13:17:53;6.00;92.70
8539;DHT22;4307;53.868;11.680;2023-03-05T13:20:30;6.00;92.60
8539;DHT22;4307;53.868;11.680;2023-03-05T13:23:04;5.90;92.60
8539;DHT22;4307;53.868;11.680;2023-03-05T13:25:32;5.90;92.50
8539;DHT22;4307;53.868;11.680;2023-03-05T13:28:02;5.80;92.60
8539;DHT22;4307;53.868;11.680;2023-03-05T13:30:29;5.80;92.70
8539;DHT22;4307;53.868;11.680;2023-03-05T13:32:59;5.80;92.80
8539;DHT22;4307;53.868;11.680;2023-03-05T13:35:27;5.70;92.90
8539;DHT22;4307;53.868;11.680;2023-03-05T13:37:55;5.70;93.00
8539;DHT22;4307;53.868;11.680;2023-03-05T13:40:23;5.70;93.00
8539;DHT22;4307;53.868;11.680;2023-03-05T13:42:52;5.70;93.10
8539;DHT22;4307;53.868;11.680;2023-03-05T13:45:22;5.70;93.20
8539;DHT22;4307;53.868;11.680;2023-03-05T13:47:55;5.70;93.20
8539;DHT22;4307;53.868;11.680;2023-03-05T13:50:25;5.70;93.20
8539;DHT22;4307;53.868;11.680;2023-03-05T13:52:52;5.70;93.20
8539;DHT22;4307;53.868;11.680;2023-03-05T13:55:19;5.60;93.10
8539;DHT22;4307;53.868;11.680;2023-03-05T13:57:47;5.50;93.10
8539;DHT22;4307;53.868;11.680;2023-03-05T14:00:31;5.50;93.20
8539;DHT22;4307;53.868;11.680;2023-03-05T14:03:00;5.50;93.20
8539;DHT22;4307;53.868;11.680;2023-03-05T14:05:32;5.50;93.30
8539;DHT22;4307;53.868;11.680;2023-03-05T14:07:59;5.50;93.40
8539;DHT22;4307;53.868;11.680;2023-03-05T14:10:32;5.50;93.60
8539;DHT22;4307;53.868;11.680;2023-03-05T14:13:01;5.50;93.60
8539;DHT22;4307;53.868;11.680;2023-03-05T14:15:31;5.50;93.60
8539;DHT22;4307;53.868;11.680;2023-03-05T14:18:18;5.60;93.90
8539;DHT22;4307;53.868;11.680;2023-03-05T14:21:03;6.00;94.40
8539;DHT22;4307;53.868;11.680;2023-03-05T14:23:38;6.60;94.50
8539;DHT22;4307;53.868;11.680;2023-03-05T14:26:32;7.00;94.10
8539;DHT22;4307;53.868;11.680;2023-03-05T14:29:02;7.00;93.70
8539;DHT22;4307;53.868;11.680;2023-03-05T14:31:34;6.90;93.70
8539;DHT22;4307;53.868;11.680;2023-03-05T14:34:03;6.70;93.70
8539;DHT22;4307;53.868;11.680;2023-03-05T14:36:31;6.60;93.80
8539;DHT22;4307;53.868;11.680;2023-03-05T14:38:59;6.50;93.70
8539;DHT22;4307;53.868;11.680;2023-03-05T14:41:35;6.30;93.70
8539;DHT22;4307;53.868;11.680;2023-03-05T14:44:09;6.20;93.80
8539;DHT22;4307;53.868;11.680;2023-03-05T14:46:37;6.10;93.90
8539;DHT22;4307;53.868;11.680;2023-03-05T14:49:04;6.00;94.00
8539;DHT22;4307;53.868;11.680;2023-03-05T14:51:34;6.00;94.10
8539;DHT22;4307;53.868;11.680;2023-03-05T14:54:02;5.90;94.10
8539;DHT22;4307;53.868;11.680;2023-03-05T14:56:29;5.80;94.10
8539;DHT22;4307;53.868;11.680;2023-03-05T14:58:56;5.80;94.20
8539;DHT22;4307;53.868;11.680;2023-03-05T15:01:22;5.80;94.30
8539;DHT22;4307;53.868;11.680;2023-03-05T15:03:51;5.70;94.30
8539;DHT22;4307;53.868;11.680;2023-03-05T15:06:19;5.60;94.40
8539;DHT22;4307;53.868;11.680;2023-03-05T15:08:47;5.60;94.50
8539;DHT22;4307;53.868;11.680;2023-03-05T15:11:13;5.50;94.50
8539;DHT22;4307;53.868;11.680;2023-03-05T15:13:40;5.50;94.70
8539;DHT22;4307;53.868;11.680;2023-03-05T15:16:09;5.50;94.80
8539;DHT22;4307;53.868;11.680;2023-03-05T15:18:37;5.40;94.80
8539;DHT22;4307;53.868;11.680;2023-03-05T15:21:05;5.40;94.90
8539;DHT22;4307;53.868;11.680;2023-03-05T15:23:32;5.30;94.90
8539;DHT22;4307;53.868;11.680;2023-03-05T15:26:02;5.20;95.00
8539;DHT22;4307;53.868;11.680;2023-03-05T15:28:31;5.20;95.10
8539;DHT22;4307;53.868;11.680;2023-03-05T15:30:59;5.10;95.10
8539;DHT22;4307;53.868;11.680;2023-03-05T15:33:26;5.10;95.20
8539;DHT22;4307;53.868;11.680;2023-03-05T15:35:53;5.10;95.30
8539;DHT22;4307;53.868;11.680;2023-03-05T15:38:21;5.00;95.30
8539;DHT22;4307;53.868;11.680;2023-03-05T15:40:49;5.00;95.40
8539;DHT22;4307;53.868;11.680;2023-03-05T15:43:17;5.00;95.50
8539;DHT22;4307;53.868;11.680;2023-03-05T15:45:44;5.10;95.70
8539;DHT22;4307;53.868;11.680;2023-03-05T15:48:12;5.10;95.80
8539;DHT22;4307;53.868;11.680;2023-03-05T15:50:39;5.10;95.90
8539;DHT22;4307;53.868;11.680;2023-03-05T15:53:06;5.10;96.00
8539;DHT22;4307;53.868;11.680;2023-03-05T15:55:37;5.10;96.00
8539;DHT22;4307;53.868;11.680;2023-03-05T15:58:04;5.10;96.10
8539;DHT22;4307;53.868;11.680;2023-03-05T16:00:34;5.10;96.20
8539;DHT22;4307;53.868;11.680;2023-03-05T16:03:01;5.00;96.20
8539;DHT22;4307;53.868;11.680;2023-03-05T16:05:28;5.10;96.30
8539;DHT22;4307;53.868;11.680;2023-03-05T16:07:55;5.10;96.40
8539;DHT22;4307;53.868;11.680;2023-03-05T16:10:23;5.10;96.40
8539;DHT22;4307;53.868;11.680;2023-03-05T16:12:54;5.10;96.50
8539;DHT22;4307;53.868;11.680;2023-03-05T16:15:22;5.10;96.60
8539;DHT22;4307;53.868;11.680;2023-03-05T16:17:51;5.20;96.70
8539;DHT22;4307;53.868;11.680;2023-03-05T16:20:20;5.20;96.70
8539;DHT22;4307;53.868;11.680;2023-03-05T16:22:47;5.20;96.70